| time (UTC) | temp C | wind direction | speed KPH | gust KPH | rain 1hr cm | rain 24hr cm | rain mn cm | humidity % | barometer mb |
| 20260507091017 | 7 | 315 | 4.8 | 11.3 | 0.00 | 0.03 | 0.00 | 92 | 1013.5 |
| 20260507090017 | 8 | 338 | 1.6 | 6.4 | 0.00 | 0.03 | 0.00 | 92 | 1013.3 |
| 20260507085017 | 8 | 0 | 4.8 | 11.3 | 0.00 | 0.03 | 0.00 | 92 | 1013.3 |
| 20260507084017 | 7 | 338 | 4.8 | 11.3 | 0.00 | 0.03 | 0.00 | 92 | 1013.3 |
| 20260507083059 | 7 | 315 | 3.2 | 12.9 | 0.00 | 0.03 | 0.00 | 93 | 1013.2 |
| 20260507082018 | 7 | 315 | 4.8 | 12.9 | 0.00 | 0.03 | 0.00 | 92 | 1013.1 |
| 20260507081017 | 7 | 338 | 3.2 | 6.4 | 0.00 | 0.03 | 0.00 | 93 | 1012.9 |
| 20260507080017 | 7 | 315 | 6.4 | 14.5 | 0.00 | 0.03 | 0.00 | 94 | 1012.9 |
| 20260507075017 | 7 | 315 | 3.2 | 8.0 | 0.00 | 0.03 | 0.00 | 94 | 1012.6 |
| 20260507074018 | 7 | 293 | 3.2 | 9.7 | 0.00 | 0.03 | 0.00 | 94 | 1012.6 |
| 20260507073017 | 7 | 0 | 3.2 | 8.0 | 0.00 | 0.03 | 0.00 | 95 | 1012.5 |
| 20260507072017 | 7 | 338 | 4.8 | 8.0 | 0.00 | 0.03 | 0.00 | 95 | 1012.4 |
| 20260507071037 | 7 | 315 | 3.2 | 12.9 | 0.00 | 0.03 | 0.00 | 95 | 1012.4 |
| 20260507070017 | 6 | 338 | 3.2 | 9.7 | 0.00 | 0.03 | 0.00 | 95 | 1012.2 |
| 20260507065017 | 6 | 315 | 6.4 | 12.9 | 0.00 | 0.03 | 0.00 | 95 | 1012.1 |
| 20260507064058 | 7 | 338 | 4.8 | 14.5 | 0.00 | 0.03 | 0.00 | 95 | 1012.0 |
| 20260507063037 | 6 | 338 | 4.8 | 12.9 | 0.00 | 0.03 | 0.00 | 95 | 1012.0 |
| 20260507062017 | 6 | 315 | 8.0 | 14.5 | 0.00 | 0.03 | 0.00 | 95 | 1011.8 |
| 20260507061058 | 6 | 23 | 6.4 | 16.1 | 0.00 | 0.03 | 0.00 | 95 | 1011.8 |
| 20260507060016 | 6 | 315 | 4.8 | 9.7 | 0.00 | 0.03 | 0.00 | 95 | 1011.6 |
| 20260507055018 | 6 | 338 | 6.4 | 14.5 | 0.00 | 0.03 | 0.00 | 95 | 1011.5 |
| 20260507054018 | 6 | 338 | 3.2 | 8.0 | 0.00 | 0.03 | 0.00 | 95 | 1011.2 |
| 20260507053036 | 6 | 293 | 3.2 | 12.9 | 0.00 | 0.03 | 0.00 | 95 | 1011.1 |
| 20260507052018 | 6 | 315 | 4.8 | 11.3 | 0.00 | 0.03 | 0.00 | 95 | 1011.1 |
| 20260507051018 | 6 | 338 | 6.4 | 12.9 | 0.00 | 0.03 | 0.00 | 95 | 1011.0 |
| 20260507050016 | 6 | 0 | 6.4 | 12.9 | 0.00 | 0.03 | 0.00 | 95 | 1010.9 |
| 20260507045017 | 6 | 315 | 4.8 | 12.9 | 0.00 | 0.03 | 0.00 | 95 | 1010.8 |
| 20260507044016 | 6 | 338 | 4.8 | 16.1 | 0.00 | 0.03 | 0.00 | 95 | 1010.7 |
| 20260507043018 | 6 | 23 | 3.2 | 11.3 | 0.00 | 0.03 | 0.00 | 95 | 1010.6 |
| 20260507042036 | 6 | 0 | 4.8 | 14.5 | 0.00 | 0.03 | 0.00 | 95 | 1010.5 |
| 20260507041016 | 6 | 338 | 6.4 | 12.9 | 0.00 | 0.03 | 0.00 | 95 | 1010.4 |
| 20260507040016 | 7 | 315 | 6.4 | 12.9 | 0.00 | 0.03 | 0.00 | 95 | 1010.3 |
| 20260507035036 | 7 | 315 | 3.2 | 8.0 | 0.00 | 0.03 | 0.00 | 95 | 1010.3 |
| 20260507034036 | 7 | 338 | 6.4 | 12.9 | 0.00 | 0.03 | 0.00 | 95 | 1010.2 |
| 20260507033016 | 7 | 315 | 6.4 | 11.3 | 0.00 | 0.03 | 0.00 | 95 | 1010.3 |
| 20260507032016 | 7 | 338 | 4.8 | 12.9 | 0.00 | 0.05 | 0.00 | 95 | 1010.2 |
| 20260507031016 | 7 | 338 | 1.6 | 8.0 | 0.00 | 0.05 | 0.00 | 95 | 1010.2 |
| 20260507030016 | 7 | 315 | 4.8 | 9.7 | 0.00 | 0.05 | 0.00 | 95 | 1010.1 |
| 20260507025038 | 7 | 338 | 1.6 | 6.4 | 0.00 | 0.05 | 0.00 | 95 | 1010.1 |
| 20260507024016 | 7 | 338 | 6.4 | 12.9 | 0.00 | 0.05 | 0.00 | 95 | 1010.1 |
| 20260507023016 | 7 | 338 | 6.4 | 12.9 | 0.00 | 0.05 | 0.00 | 95 | 1010.1 |
| 20260507022016 | 7 | 315 | 6.4 | 14.5 | 0.00 | 0.05 | 0.00 | 95 | 1010.0 |
| 20260507021016 | 7 | 338 | 4.8 | 12.9 | 0.00 | 0.05 | 0.00 | 95 | 1009.9 |
| 20260507020016 | 7 | 0 | 4.8 | 9.7 | 0.00 | 0.05 | 0.00 | 95 | 1009.9 |
| 20260507015016 | 7 | 338 | 3.2 | 8.0 | 0.00 | 0.05 | 0.00 | 95 | 1009.8 |
| 20260507014016 | 7 | 315 | 3.2 | 9.7 | 0.00 | 0.05 | 0.00 | 95 | 1009.7 |
| 20260507013016 | 7 | 270 | 3.2 | 8.0 | 0.00 | 0.05 | 0.00 | 95 | 1009.6 |
| 20260507012016 | 7 | 338 | 3.2 | 9.7 | 0.00 | 0.05 | 0.00 | 95 | 1009.6 |
| 20260507011016 | 7 | 270 | 1.6 | 6.4 | 0.00 | 0.05 | 0.00 | 95 | 1009.6 |
| 20260507010016 | 7 | 338 | 3.2 | 9.7 | 0.00 | 0.05 | 0.00 | 95 | 1009.5 |
| 20260507005018 | 7 | 338 | 4.8 | 12.9 | 0.00 | 0.05 | 0.00 | 95 | 1009.4 |
| 20260507004016 | 7 | 338 | 4.8 | 12.9 | 0.00 | 0.05 | 0.00 | 95 | 1009.6 |
| 20260507003036 | 7 | 338 | 3.2 | 11.3 | 0.00 | 0.05 | 0.00 | 95 | 1009.5 |
| 20260507002016 | 7 | 0 | 6.4 | 14.5 | 0.00 | 0.05 | 0.00 | 95 | 1009.5 |
| 20260507001016 | 7 | 338 | 4.8 | 11.3 | 0.00 | 0.05 | 0.00 | 95 | 1009.5 |
| 20260507000017 | 7 | 0 | 6.4 | 12.9 | 0.00 | 0.05 | 0.00 | 95 | 1009.6 |
| 20260506235016 | 7 | 315 | 6.4 | 12.9 | 0.00 | 0.05 | 0.00 | 95 | 1009.5 |
| 20260506234016 | 7 | 338 | 4.8 | 8.0 | 0.00 | 0.05 | 0.00 | 95 | 1009.3 |
| 20260506233016 | 7 | 338 | 6.4 | 12.9 | 0.00 | 0.05 | 0.00 | 95 | 1009.4 |
| 20260506232016 | 7 | 0 | 6.4 | 16.1 | 0.00 | 0.05 | 0.00 | 95 | 1009.3 |
| 20260506231017 | 7 | 338 | 6.4 | 14.5 | 0.00 | 0.05 | 0.00 | 95 | 1009.2 |
| 20260506230017 | 7 | 0 | 4.8 | 11.3 | 0.00 | 0.05 | 0.00 | 95 | 1009.2 |
| 20260506225016 | 7 | 338 | 4.8 | 12.9 | 0.00 | 0.05 | 0.00 | 95 | 1009.2 |
| 20260506224038 | 7 | 315 | 4.8 | 14.5 | 0.00 | 0.05 | 0.00 | 95 | 1009.0 |
| 20260506223016 | 7 | 315 | 4.8 | 11.3 | 0.00 | 0.05 | 0.00 | 95 | 1008.9 |
| 20260506222016 | 7 | 315 | 3.2 | 8.0 | 0.00 | 0.05 | 0.00 | 95 | 1008.8 |
| 20260506221016 | 7 | 315 | 1.6 | 6.4 | 0.00 | 0.05 | 0.00 | 95 | 1008.8 |
| 20260506220037 | 7 | 338 | 1.6 | 8.0 | 0.00 | 0.05 | 0.05 | 95 | 1008.7 |
| 20260506215016 | 7 | 338 | 1.6 | 6.4 | 0.00 | 0.05 | 0.05 | 95 | 1008.7 |
| 20260506214016 | 7 | 338 | 3.2 | 12.9 | 0.00 | 0.05 | 0.05 | 94 | 1008.6 |
| 20260506213038 | 7 | 225 | 3.2 | 8.0 | 0.00 | 0.05 | 0.05 | 94 | 1008.5 |
| 20260506212016 | 7 | 315 | 3.2 | 9.7 | 0.00 | 0.05 | 0.05 | 94 | 1008.5 |
| 20260506211016 | 7 | 338 | 3.2 | 6.4 | 0.00 | 0.05 | 0.05 | 94 | 1008.5 |
| 20260506210017 | 7 | 338 | 3.2 | 12.9 | 0.00 | 0.05 | 0.05 | 94 | 1008.5 |
| 20260506205016 | 7 | 338 | 4.8 | 14.5 | 0.00 | 0.05 | 0.05 | 94 | 1008.4 |
| 20260506204018 | 7 | 315 | 6.4 | 17.7 | 0.00 | 0.05 | 0.05 | 94 | 1008.3 |
| 20260506203016 | 7 | 338 | 1.6 | 6.4 | 0.00 | 0.05 | 0.05 | 94 | 1008.2 |
| 20260506202016 | 7 | 315 | 4.8 | 17.7 | 0.00 | 0.05 | 0.05 | 94 | 1008.1 |
| 20260506201016 | 7 | 338 | 8.0 | 16.1 | 0.00 | 0.05 | 0.05 | 94 | 1008.0 |
| 20260506200017 | 7 | 338 | 4.8 | 12.9 | 0.00 | 0.05 | 0.05 | 94 | 1007.9 |
| 20260506195016 | 7 | 338 | 4.8 | 14.5 | 0.00 | 0.05 | 0.05 | 93 | 1007.9 |
| 20260506194017 | 7 | 315 | 8.0 | 19.3 | 0.00 | 0.05 | 0.05 | 93 | 1007.7 |
| 20260506193036 | 8 | 315 | 9.7 | 19.3 | 0.00 | 0.05 | 0.05 | 93 | 1007.7 |
| 20260506192016 | 8 | 338 | 8.0 | 20.9 | 0.00 | 0.05 | 0.05 | 93 | 1007.6 |
| 20260506191016 | 8 | 315 | 8.0 | 19.3 | 0.00 | 0.05 | 0.05 | 93 | 1007.3 |
| 20260506190036 | 8 | 338 | 8.0 | 19.3 | 0.00 | 0.05 | 0.05 | 92 | 1007.2 |
| 20260506185017 | 8 | 338 | 6.4 | 19.3 | 0.00 | 0.05 | 0.05 | 92 | 1007.1 |
| 20260506184016 | 8 | 0 | 4.8 | 12.9 | 0.00 | 0.05 | 0.05 | 92 | 1006.9 |
| 20260506183016 | 8 | 0 | 6.4 | 16.1 | 0.00 | 0.05 | 0.05 | 92 | 1006.8 |
| 20260506182016 | 8 | 338 | 4.8 | 14.5 | 0.00 | 0.05 | 0.05 | 92 | 1006.8 |
| 20260506181016 | 9 | 338 | 3.2 | 14.5 | 0.00 | 0.05 | 0.05 | 92 | 1006.7 |
| 20260506180016 | 9 | 0 | 8.0 | 19.3 | 0.00 | 0.05 | 0.05 | 92 | 1006.6 |
| 20260506175016 | 9 | 315 | 6.4 | 16.1 | 0.00 | 0.08 | 0.05 | 92 | 1006.6 |
| 20260506174018 | 9 | 0 | 6.4 | 16.1 | 0.00 | 0.08 | 0.05 | 92 | 1006.4 |
| 20260506173039 | 9 | 0 | 9.7 | 24.1 | 0.00 | 0.08 | 0.05 | 92 | 1006.4 |
| 20260506172057 | 9 | 0 | 6.4 | 16.1 | 0.00 | 0.08 | 0.05 | 92 | 1006.4 |
| 20260506171018 | 10 | 338 | 6.4 | 19.3 | 0.00 | 0.08 | 0.05 | 92 | 1006.4 |
| 20260506170019 | 10 | 338 | 3.2 | 9.7 | 0.00 | 0.10 | 0.05 | 92 | 1006.2 |
| 20260506165019 | 10 | 338 | 6.4 | 14.5 | 0.00 | 0.10 | 0.05 | 92 | 1006.2 |
| 20260506164017 | 10 | 315 | 3.2 | 9.7 | 0.00 | 0.10 | 0.05 | 92 | 1006.1 |
| 20260506163017 | 10 | 315 | 6.4 | 14.5 | 0.03 | 0.10 | 0.05 | 93 | 1006.2 |
| 20260506162017 | 10 | 315 | 4.8 | 14.5 | 0.03 | 0.10 | 0.05 | 92 | 1006.2 |
| 20260506161017 | 10 | 338 | 3.2 | 9.7 | 0.03 | 0.10 | 0.05 | 93 | 1006.2 |
| 20260506160017 | 10 | 338 | 3.2 | 11.3 | 0.03 | 0.10 | 0.05 | 92 | 1006.1 |
| 20260506155037 | 10 | 338 | 4.8 | 12.9 | 0.03 | 0.10 | 0.05 | 92 | 1006.1 |
| 20260506154017 | 10 | 315 | 6.4 | 14.5 | 0.03 | 0.10 | 0.05 | 92 | 1006.0 |
| 20260506153018 | 10 | 338 | 6.4 | 14.5 | 0.00 | 0.08 | 0.05 | 92 | 1006.0 |
| 20260506152017 | 10 | 315 | 4.8 | 14.5 | 0.00 | 0.08 | 0.05 | 92 | 1005.9 |
| 20260506151017 | 10 | 338 | 4.8 | 12.9 | 0.00 | 0.10 | 0.05 | 91 | 1005.8 |
| 20260506150019 | 11 | 338 | 3.2 | 11.3 | 0.00 | 0.10 | 0.05 | 91 | 1005.8 |
| 20260506145039 | 11 | 315 | 4.8 | 14.5 | 0.00 | 0.10 | 0.05 | 91 | 1005.7 |
| 20260506144017 | 11 | 315 | 8.0 | 17.7 | 0.00 | 0.10 | 0.05 | 91 | 1005.6 |
| 20260506143019 | 11 | 315 | 6.4 | 12.9 | 0.00 | 0.13 | 0.05 | 89 | 1005.6 |
| 20260506142039 | 12 | 23 | 4.8 | 12.9 | 0.00 | 0.15 | 0.05 | 88 | 1005.5 |
| 20260506141017 | 12 | 338 | 3.2 | 12.9 | 0.00 | 0.15 | 0.05 | 86 | 1005.6 |
| 20260506140017 | 12 | 270 | 1.6 | 6.4 | 0.00 | 0.18 | 0.05 | 87 | 1005.5 |
| 20260506135017 | 12 | 338 | 3.2 | 9.7 | 0.00 | 0.18 | 0.05 | 87 | 1005.5 |
| 20260506134017 | 12 | 23 | 4.8 | 12.9 | 0.00 | 0.18 | 0.05 | 88 | 1005.4 |
| 20260506133017 | 13 | 248 | 4.8 | 11.3 | 0.00 | 0.20 | 0.05 | 88 | 1005.6 |
| 20260506132017 | 12 | 338 | 6.4 | 14.5 | 0.00 | 0.20 | 0.05 | 90 | 1005.4 |
| 20260506131019 | 12 | 315 | 6.4 | 16.1 | 0.00 | 0.23 | 0.05 | 86 | 1005.4 |
| 20260506130017 | 13 | 270 | 3.2 | 9.7 | 0.00 | 0.23 | 0.05 | 84 | 1005.4 |
| 20260506125017 | 13 | 270 | 3.2 | 6.4 | 0.00 | 0.25 | 0.05 | 84 | 1005.3 |
| 20260506124017 | 13 | 225 | 3.2 | 12.9 | 0.00 | 0.30 | 0.05 | 85 | 1005.3 |
| 20260506123017 | 13 | 270 | 8.0 | 16.1 | 0.00 | 0.30 | 0.05 | 85 | 1005.2 |
| 20260506122017 | 13 | 270 | 6.4 | 14.5 | 0.00 | 0.30 | 0.05 | 83 | 1005.3 |
| 20260506121037 | 13 | 248 | 3.2 | 6.4 | 0.00 | 0.30 | 0.05 | 84 | 1005.2 |
| 20260506120017 | 13 | 158 | 6.4 | 12.9 | 0.00 | 0.30 | 0.05 | 85 | 1005.3 |
| 20260506115037 | 13 | 248 | 3.2 | 8.0 | 0.00 | 0.30 | 0.05 | 80 | 1005.2 |
| 20260506114017 | 13 | 225 | 4.8 | 9.7 | 0.00 | 0.30 | 0.05 | 80 | 1005.2 |
| 20260506113037 | 13 | 225 | 4.8 | 11.3 | 0.00 | 0.30 | 0.05 | 84 | 1005.3 |
| 20260506112019 | 13 | 203 | 4.8 | 11.3 | 0.00 | 0.30 | 0.05 | 83 | 1005.3 |
| 20260506111017 | 13 | 203 | 8.0 | 14.5 | 0.00 | 0.30 | 0.05 | 84 | 1005.2 |
| 20260506110037 | 13 | 158 | 8.0 | 14.5 | 0.00 | 0.30 | 0.05 | 82 | 1005.3 |
| 20260506105017 | 13 | 158 | 8.0 | 14.5 | 0.00 | 0.30 | 0.05 | 82 | 1005.4 |
| 20260506104017 | 13 | 158 | 4.8 | 11.3 | 0.00 | 0.30 | 0.05 | 83 | 1005.3 |
| 20260506103018 | 13 | 225 | 6.4 | 12.9 | 0.00 | 0.30 | 0.05 | 83 | 1005.3 |
| 20260506102017 | 13 | 158 | 8.0 | 14.5 | 0.00 | 0.30 | 0.05 | 83 | 1005.2 |
| 20260506101017 | 14 | 203 | 4.8 | 9.7 | 0.00 | 0.30 | 0.05 | 84 | 1005.2 |
| 20260506100037 | 13 | 180 | 8.0 | 14.5 | 0.00 | 0.30 | 0.05 | 82 | 1005.1 |
| 20260506095017 | 13 | 158 | 6.4 | 11.3 | 0.00 | 0.30 | 0.05 | 85 | 1005.0 |
| 20260506094018 | 12 | 180 | 4.8 | 12.9 | 0.00 | 0.30 | 0.05 | 89 | 1005.1 |
| 20260506093017 | 12 | 180 | 4.8 | 12.9 | 0.00 | 0.30 | 0.05 | 88 | 1005.0 |
| 20260506092019 | 12 | 203 | 6.4 | 11.3 | 0.00 | 0.30 | 0.05 | 88 | 1005.1 |